Burley in Wharfedale, United Kingdom
Current Conditions -  °F | °C
As of 4:20 AM on Saturday 25 Oct 2014 (Local Time) from EGNM Reporting Station
Clear Clear  
Wind Chill: 41°   Ceiling: Unl
Heat Index: 45°   Visibility: 6mi
Dew Point: 43°   Wind: 7mph
Humidity: 93%   Direction: 250°WSW
Pressure: 29.88"   Gusts: NA
Location:  53.91°N, 1.76°W
Report Text: EGNM 250320Z 25006KT 220V280 CAVOK 07/06 Q1012
Loading
Personal Weather Stations






























Interactive Weather Map
Tropical Storm Tracking
New forecast layout! Learn more

10-Day Weather Forecast

Advertisements
Track Severe Weather on mobile